sensor_id;sensor_type;location;lat;lon;timestamp;temperature;humidity
8862;DHT22;4799;50.996;4.754;2024-03-23T00:52:48;7.50;99.90
8862;DHT22;4799;50.996;4.754;2024-03-23T00:55:13;7.50;99.90
8862;DHT22;4799;50.996;4.754;2024-03-23T00:57:39;7.50;99.90
8862;DHT22;4799;50.996;4.754;2024-03-23T01:00:05;7.50;99.90
8862;DHT22;4799;50.996;4.754;2024-03-23T01:02:34;7.50;99.90
8862;DHT22;4799;50.996;4.754;2024-03-23T01:05:00;7.50;99.90
8862;DHT22;4799;50.996;4.754;2024-03-23T01:07:26;7.50;99.90
8862;DHT22;4799;50.996;4.754;2024-03-23T01:09:51;7.50;99.90
8862;DHT22;4799;50.996;4.754;2024-03-23T01:12:18;7.50;99.90
8862;DHT22;4799;50.996;4.754;2024-03-23T01:14:44;7.50;99.90
8862;DHT22;4799;50.996;4.754;2024-03-23T01:17:10;7.50;99.90
8862;DHT22;4799;50.996;4.754;2024-03-23T01:19:36;7.50;99.90
8862;DHT22;4799;50.996;4.754;2024-03-23T01:22:01;7.50;99.90
8862;DHT22;4799;50.996;4.754;2024-03-23T01:24:27;7.50;99.90
8862;DHT22;4799;50.996;4.754;2024-03-23T01:26:52;7.40;99.90
8862;DHT22;4799;50.996;4.754;2024-03-23T01:29:18;7.40;99.90
8862;DHT22;4799;50.996;4.754;2024-03-23T01:31:44;7.30;99.90
8862;DHT22;4799;50.996;4.754;2024-03-23T01:34:09;7.30;99.90
8862;DHT22;4799;50.996;4.754;2024-03-23T01:36:35;7.30;99.90
8862;DHT22;4799;50.996;4.754;2024-03-23T01:39:01;7.30;99.90
8862;DHT22;4799;50.996;4.754;2024-03-23T01:41:26;7.30;99.90
8862;DHT22;4799;50.996;4.754;2024-03-23T01:43:55;7.30;99.90
8862;DHT22;4799;50.996;4.754;2024-03-23T01:46:20;7.30;99.90
8862;DHT22;4799;50.996;4.754;2024-03-23T01:48:46;7.30;99.90
8862;DHT22;4799;50.996;4.754;2024-03-23T01:51:13;7.20;99.90
8862;DHT22;4799;50.996;4.754;2024-03-23T01:53:38;7.20;99.90
8862;DHT22;4799;50.996;4.754;2024-03-23T01:56:05;7.20;99.90
8862;DHT22;4799;50.996;4.754;2024-03-23T01:58:31;7.10;99.90
8862;DHT22;4799;50.996;4.754;2024-03-23T02:00:58;7.10;99.90
8862;DHT22;4799;50.996;4.754;2024-03-23T02:03:26;7.10;99.90
8862;DHT22;4799;50.996;4.754;2024-03-23T02:05:53;7.00;99.90
8862;DHT22;4799;50.996;4.754;2024-03-23T02:08:21;7.00;99.90
8862;DHT22;4799;50.996;4.754;2024-03-23T02:10:47;6.90;99.90
8862;DHT22;4799;50.996;4.754;2024-03-23T02:13:14;6.90;99.90
8862;DHT22;4799;50.996;4.754;2024-03-23T02:15:40;6.80;99.90
8862;DHT22;4799;50.996;4.754;2024-03-23T02:18:09;6.70;99.90
8862;DHT22;4799;50.996;4.754;2024-03-23T02:20:36;6.60;99.90
8862;DHT22;4799;50.996;4.754;2024-03-23T02:23:02;6.50;99.90
8862;DHT22;4799;50.996;4.754;2024-03-23T02:25:28;6.50;99.90
8862;DHT22;4799;50.996;4.754;2024-03-23T02:27:54;6.40;99.90
8862;DHT22;4799;50.996;4.754;2024-03-23T02:30:20;6.40;99.90
8862;DHT22;4799;50.996;4.754;2024-03-23T02:32:46;6.50;99.90
8862;DHT22;4799;50.996;4.754;2024-03-23T02:35:12;6.50;99.90
8862;DHT22;4799;50.996;4.754;2024-03-23T02:37:40;6.60;99.90
8862;DHT22;4799;50.996;4.754;2024-03-23T02:40:06;6.60;99.90
8862;DHT22;4799;50.996;4.754;2024-03-23T02:42:35;6.60;99.90
8862;DHT22;4799;50.996;4.754;2024-03-23T02:45:00;6.60;99.90
8862;DHT22;4799;50.996;4.754;2024-03-23T02:47:26;6.70;99.90
8862;DHT22;4799;50.996;4.754;2024-03-23T02:49:52;6.70;99.90
8862;DHT22;4799;50.996;4.754;2024-03-23T02:52:17;6.70;99.90
8862;DHT22;4799;50.996;4.754;2024-03-23T02:54:43;6.70;99.90
8862;DHT22;4799;50.996;4.754;2024-03-23T02:57:10;6.70;99.90
8862;DHT22;4799;50.996;4.754;2024-03-23T02:59:36;6.70;99.90
8862;DHT22;4799;50.996;4.754;2024-03-23T03:02:02;6.70;99.90
8862;DHT22;4799;50.996;4.754;2024-03-23T03:04:30;6.70;99.90
8862;DHT22;4799;50.996;4.754;2024-03-23T03:06:56;6.70;99.90
8862;DHT22;4799;50.996;4.754;2024-03-23T03:09:22;6.70;99.90
8862;DHT22;4799;50.996;4.754;2024-03-23T03:11:48;6.70;99.90
8862;DHT22;4799;50.996;4.754;2024-03-23T03:14:13;6.70;99.90
8862;DHT22;4799;50.996;4.754;2024-03-23T03:16:39;6.70;99.90
8862;DHT22;4799;50.996;4.754;2024-03-23T03:19:05;6.70;99.90
8862;DHT22;4799;50.996;4.754;2024-03-23T03:21:32;6.60;99.90
8862;DHT22;4799;50.996;4.754;2024-03-23T03:23:58;6.60;99.90
8862;DHT22;4799;50.996;4.754;2024-03-23T03:26:24;6.50;99.90
8862;DHT22;4799;50.996;4.754;2024-03-23T03:28:50;6.50;99.90
8862;DHT22;4799;50.996;4.754;2024-03-23T03:31:16;6.40;99.90
8862;DHT22;4799;50.996;4.754;2024-03-23T03:33:42;6.30;99.90
8862;DHT22;4799;50.996;4.754;2024-03-23T03:36:08;6.30;99.90
8862;DHT22;4799;50.996;4.754;2024-03-23T03:38:34;6.20;99.90
8862;DHT22;4799;50.996;4.754;2024-03-23T03:41:04;6.20;99.90
8862;DHT22;4799;50.996;4.754;2024-03-23T03:43:29;6.10;99.90
8862;DHT22;4799;50.996;4.754;2024-03-23T03:45:57;6.10;99.90
8862;DHT22;4799;50.996;4.754;2024-03-23T03:48:23;6.10;99.90
8862;DHT22;4799;50.996;4.754;2024-03-23T03:50:49;6.10;99.90
8862;DHT22;4799;50.996;4.754;2024-03-23T03:53:15;6.00;99.90
8862;DHT22;4799;50.996;4.754;2024-03-23T03:55:41;6.00;99.90
8862;DHT22;4799;50.996;4.754;2024-03-23T03:58:07;5.90;99.90
8862;DHT22;4799;50.996;4.754;2024-03-23T04:00:33;5.90;99.90
8862;DHT22;4799;50.996;4.754;2024-03-23T04:02:58;6.00;99.90
8862;DHT22;4799;50.996;4.754;2024-03-23T04:05:24;6.00;99.90
8862;DHT22;4799;50.996;4.754;2024-03-23T04:07:50;6.00;99.90
8862;DHT22;4799;50.996;4.754;2024-03-23T04:10:16;6.00;99.90
8862;DHT22;4799;50.996;4.754;2024-03-23T04:12:42;6.10;99.90
8862;DHT22;4799;50.996;4.754;2024-03-23T04:15:08;6.10;99.90
8862;DHT22;4799;50.996;4.754;2024-03-23T04:17:34;6.10;99.90
8862;DHT22;4799;50.996;4.754;2024-03-23T04:20:00;6.10;99.90
8862;DHT22;4799;50.996;4.754;2024-03-23T04:22:27;6.10;99.90
8862;DHT22;4799;50.996;4.754;2024-03-23T04:24:54;6.20;99.90
8862;DHT22;4799;50.996;4.754;2024-03-23T04:27:20;6.20;99.90
8862;DHT22;4799;50.996;4.754;2024-03-23T04:29:55;6.20;99.90
8862;DHT22;4799;50.996;4.754;2024-03-23T04:32:26;6.20;99.90
8862;DHT22;4799;50.996;4.754;2024-03-23T04:34:52;6.10;99.90
8862;DHT22;4799;50.996;4.754;2024-03-23T04:37:18;6.10;99.90
8862;DHT22;4799;50.996;4.754;2024-03-23T04:39:43;6.10;99.90
8862;DHT22;4799;50.996;4.754;2024-03-23T04:42:09;6.10;99.90
8862;DHT22;4799;50.996;4.754;2024-03-23T04:44:35;6.00;99.90
8862;DHT22;4799;50.996;4.754;2024-03-23T04:47:01;6.10;99.90
8862;DHT22;4799;50.996;4.754;2024-03-23T04:49:27;6.10;99.90
8862;DHT22;4799;50.996;4.754;2024-03-23T04:51:52;6.10;99.90
8862;DHT22;4799;50.996;4.754;2024-03-23T04:54:18;6.10;99.90
8862;DHT22;4799;50.996;4.754;2024-03-23T04:56:45;6.20;99.90
8862;DHT22;4799;50.996;4.754;2024-03-23T04:59:11;6.20;99.90
8862;DHT22;4799;50.996;4.754;2024-03-23T05:01:36;6.20;99.90
8862;DHT22;4799;50.996;4.754;2024-03-23T05:04:04;6.20;99.90
8862;DHT22;4799;50.996;4.754;2024-03-23T05:06:30;6.10;99.90
8862;DHT22;4799;50.996;4.754;2024-03-23T05:08:56;6.10;99.90
8862;DHT22;4799;50.996;4.754;2024-03-23T05:11:22;6.00;99.90
8862;DHT22;4799;50.996;4.754;2024-03-23T05:13:47;6.10;99.90
8862;DHT22;4799;50.996;4.754;2024-03-23T05:16:13;6.10;99.90
8862;DHT22;4799;50.996;4.754;2024-03-23T05:18:39;6.10;99.90
8862;DHT22;4799;50.996;4.754;2024-03-23T05:21:04;6.10;99.90
8862;DHT22;4799;50.996;4.754;2024-03-23T05:23:30;6.10;99.90
8862;DHT22;4799;50.996;4.754;2024-03-23T05:25:56;6.00;99.90
8862;DHT22;4799;50.996;4.754;2024-03-23T05:28:22;6.00;99.90
8862;DHT22;4799;50.996;4.754;2024-03-23T05:30:54;6.00;99.90
8862;DHT22;4799;50.996;4.754;2024-03-23T05:33:20;6.00;99.90
8862;DHT22;4799;50.996;4.754;2024-03-23T05:35:47;5.90;99.90
8862;DHT22;4799;50.996;4.754;2024-03-23T05:38:13;5.90;99.90
8862;DHT22;4799;50.996;4.754;2024-03-23T05:40:39;5.90;99.90
8862;DHT22;4799;50.996;4.754;2024-03-23T05:43:06;5.70;99.90
8862;DHT22;4799;50.996;4.754;2024-03-23T05:45:32;5.70;99.90
8862;DHT22;4799;50.996;4.754;2024-03-23T05:47:58;5.60;99.90
8862;DHT22;4799;50.996;4.754;2024-03-23T05:50:24;5.60;99.90
8862;DHT22;4799;50.996;4.754;2024-03-23T05:52:50;5.50;99.90
8862;DHT22;4799;50.996;4.754;2024-03-23T05:55:16;5.50;99.90
8862;DHT22;4799;50.996;4.754;2024-03-23T05:57:41;5.50;99.90
8862;DHT22;4799;50.996;4.754;2024-03-23T06:00:07;5.50;99.90
8862;DHT22;4799;50.996;4.754;2024-03-23T06:02:44;5.50;99.90
8862;DHT22;4799;50.996;4.754;2024-03-23T06:05:11;5.50;99.90
8862;DHT22;4799;50.996;4.754;2024-03-23T06:07:37;5.60;99.90
8862;DHT22;4799;50.996;4.754;2024-03-23T06:10:04;5.70;99.90
8862;DHT22;4799;50.996;4.754;2024-03-23T06:12:31;5.70;99.90
8862;DHT22;4799;50.996;4.754;2024-03-23T06:14:57;5.80;99.90
8862;DHT22;4799;50.996;4.754;2024-03-23T06:17:22;5.90;99.90
8862;DHT22;4799;50.996;4.754;2024-03-23T06:19:48;6.00;99.90
8862;DHT22;4799;50.996;4.754;2024-03-23T06:22:14;6.10;99.90
8862;DHT22;4799;50.996;4.754;2024-03-23T06:24:40;6.10;99.90
8862;DHT22;4799;50.996;4.754;2024-03-23T06:27:06;6.20;99.90
8862;DHT22;4799;50.996;4.754;2024-03-23T06:29:31;6.10;99.90
8862;DHT22;4799;50.996;4.754;2024-03-23T06:31:58;6.10;99.90
8862;DHT22;4799;50.996;4.754;2024-03-23T06:34:24;6.10;99.90
8862;DHT22;4799;50.996;4.754;2024-03-23T06:36:50;6.00;99.90
8862;DHT22;4799;50.996;4.754;2024-03-23T06:39:16;6.00;99.90
8862;DHT22;4799;50.996;4.754;2024-03-23T06:41:53;6.00;99.90
8862;DHT22;4799;50.996;4.754;2024-03-23T06:44:20;6.00;99.90
8862;DHT22;4799;50.996;4.754;2024-03-23T06:46:46;5.90;99.90
8862;DHT22;4799;50.996;4.754;2024-03-23T06:49:12;5.90;99.90
8862;DHT22;4799;50.996;4.754;2024-03-23T06:51:37;5.90;99.90
8862;DHT22;4799;50.996;4.754;2024-03-23T06:54:05;6.00;99.90
8862;DHT22;4799;50.996;4.754;2024-03-23T06:56:30;6.00;99.90
8862;DHT22;4799;50.996;4.754;2024-03-23T06:58:57;6.10;99.90
8862;DHT22;4799;50.996;4.754;2024-03-23T07:01:23;6.20;99.90
8862;DHT22;4799;50.996;4.754;2024-03-23T07:03:48;6.40;99.90
8862;DHT22;4799;50.996;4.754;2024-03-23T07:06:14;6.50;99.90
8862;DHT22;4799;50.996;4.754;2024-03-23T07:08:40;6.60;99.90
8862;DHT22;4799;50.996;4.754;2024-03-23T07:11:06;6.60;99.90
8862;DHT22;4799;50.996;4.754;2024-03-23T07:13:32;6.70;99.90
8862;DHT22;4799;50.996;4.754;2024-03-23T07:15:57;6.70;99.90
8862;DHT22;4799;50.996;4.754;2024-03-23T07:18:25;6.80;99.90
8862;DHT22;4799;50.996;4.754;2024-03-23T07:20:58;6.80;99.90
8862;DHT22;4799;50.996;4.754;2024-03-23T07:23:24;6.80;99.90
8862;DHT22;4799;50.996;4.754;2024-03-23T07:26:00;6.80;99.90
8862;DHT22;4799;50.996;4.754;2024-03-23T07:28:26;6.80;99.90
8862;DHT22;4799;50.996;4.754;2024-03-23T07:31:07;6.70;99.90
8862;DHT22;4799;50.996;4.754;2024-03-23T07:33:35;6.80;99.90
8862;DHT22;4799;50.996;4.754;2024-03-23T07:36:01;6.80;99.90
8862;DHT22;4799;50.996;4.754;2024-03-23T07:38:31;6.70;99.90
8862;DHT22;4799;50.996;4.754;2024-03-23T07:41:10;6.80;99.90
8862;DHT22;4799;50.996;4.754;2024-03-23T07:43:37;6.80;99.90
8862;DHT22;4799;50.996;4.754;2024-03-23T07:46:03;6.80;99.90
8862;DHT22;4799;50.996;4.754;2024-03-23T07:48:29;6.90;99.90
8862;DHT22;4799;50.996;4.754;2024-03-23T07:51:00;6.90;99.90
8862;DHT22;4799;50.996;4.754;2024-03-23T07:53:26;7.00;99.90
8862;DHT22;4799;50.996;4.754;2024-03-23T07:56:00;7.10;99.90
8862;DHT22;4799;50.996;4.754;2024-03-23T07:58:26;7.10;99.90
8862;DHT22;4799;50.996;4.754;2024-03-23T08:00:53;7.20;99.90
8862;DHT22;4799;50.996;4.754;2024-03-23T08:03:19;7.10;99.90
8862;DHT22;4799;50.996;4.754;2024-03-23T08:05:45;7.20;99.90
8862;DHT22;4799;50.996;4.754;2024-03-23T08:08:11;7.20;99.90
8862;DHT22;4799;50.996;4.754;2024-03-23T08:10:37;7.30;99.90
8862;DHT22;4799;50.996;4.754;2024-03-23T08:13:12;7.30;99.90
8862;DHT22;4799;50.996;4.754;2024-03-23T08:15:37;7.40;99.90
8862;DHT22;4799;50.996;4.754;2024-03-23T08:18:03;7.40;99.90
8862;DHT22;4799;50.996;4.754;2024-03-23T08:20:30;7.40;99.90
8862;DHT22;4799;50.996;4.754;2024-03-23T08:22:55;7.50;99.90
8862;DHT22;4799;50.996;4.754;2024-03-23T08:25:21;7.70;99.90
8862;DHT22;4799;50.996;4.754;2024-03-23T08:27:47;7.80;99.90
8862;DHT22;4799;50.996;4.754;2024-03-23T08:30:13;8.00;99.90
8862;DHT22;4799;50.996;4.754;2024-03-23T08:32:38;8.10;99.90
8862;DHT22;4799;50.996;4.754;2024-03-23T08:35:04;8.20;99.90
8862;DHT22;4799;50.996;4.754;2024-03-23T08:37:30;8.40;99.90
8862;DHT22;4799;50.996;4.754;2024-03-23T08:39:56;8.50;99.90
8862;DHT22;4799;50.996;4.754;2024-03-23T08:42:22;8.60;99.90
8862;DHT22;4799;50.996;4.754;2024-03-23T08:44:47;8.70;99.90
8862;DHT22;4799;50.996;4.754;2024-03-23T08:47:15;8.80;99.90
8862;DHT22;4799;50.996;4.754;2024-03-23T08:49:41;8.90;99.90
8862;DHT22;4799;50.996;4.754;2024-03-23T08:52:07;8.90;99.90
8862;DHT22;4799;50.996;4.754;2024-03-23T08:54:33;8.90;99.90
8862;DHT22;4799;50.996;4.754;2024-03-23T08:57:00;8.90;99.90
8862;DHT22;4799;50.996;4.754;2024-03-23T08:59:25;8.80;99.90
8862;DHT22;4799;50.996;4.754;2024-03-23T09:01:52;9.00;99.90
8862;DHT22;4799;50.996;4.754;2024-03-23T09:04:18;8.90;99.90
8862;DHT22;4799;50.996;4.754;2024-03-23T09:06:43;8.90;99.90
8862;DHT22;4799;50.996;4.754;2024-03-23T09:09:09;8.90;99.90
8862;DHT22;4799;50.996;4.754;2024-03-23T09:11:35;8.90;99.90
8862;DHT22;4799;50.996;4.754;2024-03-23T09:14:01;8.70;99.90
8862;DHT22;4799;50.996;4.754;2024-03-23T09:16:26;8.60;99.90
8862;DHT22;4799;50.996;4.754;2024-03-23T09:18:52;8.50;99.90
8862;DHT22;4799;50.996;4.754;2024-03-23T09:21:18;8.50;99.90
8862;DHT22;4799;50.996;4.754;2024-03-23T09:23:45;8.50;99.90
8862;DHT22;4799;50.996;4.754;2024-03-23T09:26:11;8.60;99.90
8862;DHT22;4799;50.996;4.754;2024-03-23T09:28:37;8.60;99.90
8862;DHT22;4799;50.996;4.754;2024-03-23T09:31:04;8.70;99.90
8862;DHT22;4799;50.996;4.754;2024-03-23T09:33:30;8.70;99.90
8862;DHT22;4799;50.996;4.754;2024-03-23T09:35:55;8.80;99.90
8862;DHT22;4799;50.996;4.754;2024-03-23T09:38:24;8.90;99.90
8862;DHT22;4799;50.996;4.754;2024-03-23T09:40:53;9.10;99.90
8862;DHT22;4799;50.996;4.754;2024-03-23T09:43:19;9.30;99.90
8862;DHT22;4799;50.996;4.754;2024-03-23T09:45:46;9.60;99.90
8862;DHT22;4799;50.996;4.754;2024-03-23T09:48:12;9.80;99.90
8862;DHT22;4799;50.996;4.754;2024-03-23T09:50:42;9.80;99.90
8862;DHT22;4799;50.996;4.754;2024-03-23T09:53:10;9.90;99.90
8862;DHT22;4799;50.996;4.754;2024-03-23T09:55:37;10.10;99.90
8862;DHT22;4799;50.996;4.754;2024-03-23T09:58:03;10.40;99.90
8862;DHT22;4799;50.996;4.754;2024-03-23T10:00:31;10.70;99.90
8862;DHT22;4799;50.996;4.754;2024-03-23T10:03:00;10.60;99.90
8862;DHT22;4799;50.996;4.754;2024-03-23T10:05:29;10.50;99.90
8862;DHT22;4799;50.996;4.754;2024-03-23T10:07:57;10.20;99.90
8862;DHT22;4799;50.996;4.754;2024-03-23T10:10:25;9.60;99.90
8862;DHT22;4799;50.996;4.754;2024-03-23T10:12:51;9.10;99.90
8862;DHT22;4799;50.996;4.754;2024-03-23T10:15:24;8.90;99.90
8862;DHT22;4799;50.996;4.754;2024-03-23T10:17:50;8.70;99.90
8862;DHT22;4799;50.996;4.754;2024-03-23T10:20:23;8.70;99.90
8862;DHT22;4799;50.996;4.754;2024-03-23T10:22:52;8.70;99.90
8862;DHT22;4799;50.996;4.754;2024-03-23T10:25:18;8.80;99.90
8862;DHT22;4799;50.996;4.754;2024-03-23T10:27:58;9.00;99.90
8862;DHT22;4799;50.996;4.754;2024-03-23T10:30:26;9.20;99.90
8862;DHT22;4799;50.996;4.754;2024-03-23T10:33:09;9.50;99.90
8862;DHT22;4799;50.996;4.754;2024-03-23T10:35:37;9.70;99.90
8862;DHT22;4799;50.996;4.754;2024-03-23T10:38:05;9.80;99.90
8862;DHT22;4799;50.996;4.754;2024-03-23T10:40:31;9.90;99.90
8862;DHT22;4799;50.996;4.754;2024-03-23T10:42:58;10.00;99.90
8862;DHT22;4799;50.996;4.754;2024-03-23T10:45:24;10.00;99.90
8862;DHT22;4799;50.996;4.754;2024-03-23T10:47:50;10.00;99.90
8862;DHT22;4799;50.996;4.754;2024-03-23T10:50:16;10.00;99.90
8862;DHT22;4799;50.996;4.754;2024-03-23T10:52:45;10.10;99.90
8862;DHT22;4799;50.996;4.754;2024-03-23T10:55:11;10.10;99.90
8862;DHT22;4799;50.996;4.754;2024-03-23T10:57:45;10.20;99.90
8862;DHT22;4799;50.996;4.754;2024-03-23T11:00:14;10.40;99.90
8862;DHT22;4799;50.996;4.754;2024-03-23T11:02:40;10.60;99.90
8862;DHT22;4799;50.996;4.754;2024-03-23T11:07:52;10.40;99.90
8862;DHT22;4799;50.996;4.754;2024-03-23T11:10:26;10.10;99.90
8862;DHT22;4799;50.996;4.754;2024-03-23T11:12:53;9.90;99.90
8862;DHT22;4799;50.996;4.754;2024-03-23T11:15:19;9.70;99.90
8862;DHT22;4799;50.996;4.754;2024-03-23T11:18:06;9.50;99.90
8862;DHT22;4799;50.996;4.754;2024-03-23T11:20:35;9.40;99.90
8862;DHT22;4799;50.996;4.754;2024-03-23T11:23:01;9.10;99.90
8862;DHT22;4799;50.996;4.754;2024-03-23T11:25:29;9.00;99.90
8862;DHT22;4799;50.996;4.754;2024-03-23T11:28:09;8.80;99.90
8862;DHT22;4799;50.996;4.754;2024-03-23T11:30:35;8.80;99.90
8862;DHT22;4799;50.996;4.754;2024-03-23T11:33:03;8.70;99.90
8862;DHT22;4799;50.996;4.754;2024-03-23T11:35:34;8.60;99.90
8862;DHT22;4799;50.996;4.754;2024-03-23T11:38:14;8.50;99.90
8862;DHT22;4799;50.996;4.754;2024-03-23T11:40:47;8.60;99.90
8862;DHT22;4799;50.996;4.754;2024-03-23T11:43:15;8.70;99.90
8862;DHT22;4799;50.996;4.754;2024-03-23T11:45:45;8.70;99.90
8862;DHT22;4799;50.996;4.754;2024-03-23T11:50:40;8.80;99.90
8862;DHT22;4799;50.996;4.754;2024-03-23T11:53:11;8.90;99.90
8862;DHT22;4799;50.996;4.754;2024-03-23T11:58:22;8.90;99.90
8862;DHT22;4799;50.996;4.754;2024-03-23T12:03:17;9.00;99.90
8862;DHT22;4799;50.996;4.754;2024-03-23T12:05:51;9.30;99.90
8862;DHT22;4799;50.996;4.754;2024-03-23T12:11:06;9.90;99.90
8862;DHT22;4799;50.996;4.754;2024-03-23T12:13:33;10.10;99.90
8862;DHT22;4799;50.996;4.754;2024-03-23T12:16:18;10.30;99.90
8862;DHT22;4799;50.996;4.754;2024-03-23T12:18:48;10.10;99.90
8862;DHT22;4799;50.996;4.754;2024-03-23T12:21:15;10.00;99.90
8862;DHT22;4799;50.996;4.754;2024-03-23T12:23:42;10.00;99.90
8862;DHT22;4799;50.996;4.754;2024-03-23T12:26:10;10.10;99.90
8862;DHT22;4799;50.996;4.754;2024-03-23T12:28:37;10.20;99.90
8862;DHT22;4799;50.996;4.754;2024-03-23T12:31:03;10.20;99.90
8862;DHT22;4799;50.996;4.754;2024-03-23T12:33:28;10.20;99.90
8862;DHT22;4799;50.996;4.754;2024-03-23T12:35:54;10.30;99.90
8862;DHT22;4799;50.996;4.754;2024-03-23T12:38:20;10.30;99.90
8862;DHT22;4799;50.996;4.754;2024-03-23T12:40:49;10.40;99.90
8862;DHT22;4799;50.996;4.754;2024-03-23T12:43:19;10.50;99.90
8862;DHT22;4799;50.996;4.754;2024-03-23T12:45:48;10.70;99.90
8862;DHT22;4799;50.996;4.754;2024-03-23T12:48:14;10.80;99.90
8862;DHT22;4799;50.996;4.754;2024-03-23T12:50:40;11.00;99.90
8862;DHT22;4799;50.996;4.754;2024-03-23T12:53:06;11.50;99.90
8862;DHT22;4799;50.996;4.754;2024-03-23T12:55:31;11.90;99.90
8862;DHT22;4799;50.996;4.754;2024-03-23T12:57:57;12.30;99.90
8862;DHT22;4799;50.996;4.754;2024-03-23T13:00:23;12.50;99.90
8862;DHT22;4799;50.996;4.754;2024-03-23T13:02:48;12.80;99.90
8862;DHT22;4799;50.996;4.754;2024-03-23T13:05:14;12.90;95.90
8862;DHT22;4799;50.996;4.754;2024-03-23T13:07:40;12.90;91.50
8862;DHT22;4799;50.996;4.754;2024-03-23T13:10:06;13.00;91.20
8862;DHT22;4799;50.996;4.754;2024-03-23T13:12:32;13.10;91.20
8862;DHT22;4799;50.996;4.754;2024-03-23T13:14:59;13.20;90.10
8862;DHT22;4799;50.996;4.754;2024-03-23T13:17:26;13.20;87.30
8862;DHT22;4799;50.996;4.754;2024-03-23T13:19:53;13.20;86.90
8862;DHT22;4799;50.996;4.754;2024-03-23T13:22:19;13.20;83.40
8862;DHT22;4799;50.996;4.754;2024-03-23T13:24:44;13.10;83.60
8862;DHT22;4799;50.996;4.754;2024-03-23T13:27:10;13.10;79.60
8862;DHT22;4799;50.996;4.754;2024-03-23T13:29:36;13.00;76.40
8862;DHT22;4799;50.996;4.754;2024-03-23T13:32:03;12.90;75.60
8862;DHT22;4799;50.996;4.754;2024-03-23T13:34:29;12.80;74.40
8862;DHT22;4799;50.996;4.754;2024-03-23T13:36:55;12.70;77.60
8862;DHT22;4799;50.996;4.754;2024-03-23T13:39:23;12.60;77.00
8862;DHT22;4799;50.996;4.754;2024-03-23T13:41:49;12.40;76.80
8862;DHT22;4799;50.996;4.754;2024-03-23T13:44:15;12.40;80.60
8862;DHT22;4799;50.996;4.754;2024-03-23T13:46:42;12.30;82.00
8862;DHT22;4799;50.996;4.754;2024-03-23T13:49:33;12.40;83.50
8862;DHT22;4799;50.996;4.754;2024-03-23T13:51:59;12.40;79.90
8862;DHT22;4799;50.996;4.754;2024-03-23T13:54:25;12.60;78.80
8862;DHT22;4799;50.996;4.754;2024-03-23T13:56:52;12.50;73.60
8862;DHT22;4799;50.996;4.754;2024-03-23T13:59:18;12.70;75.00
8862;DHT22;4799;50.996;4.754;2024-03-23T14:01:44;12.90;75.50
8862;DHT22;4799;50.996;4.754;2024-03-23T14:04:13;13.00;75.30
8862;DHT22;4799;50.996;4.754;2024-03-23T14:06:42;13.10;73.20
8862;DHT22;4799;50.996;4.754;2024-03-23T14:09:07;13.00;75.30
8862;DHT22;4799;50.996;4.754;2024-03-23T14:11:36;13.00;78.60
8862;DHT22;4799;50.996;4.754;2024-03-23T14:14:03;12.80;82.10
8862;DHT22;4799;50.996;4.754;2024-03-23T14:16:30;12.60;84.20
8862;DHT22;4799;50.996;4.754;2024-03-23T14:18:55;12.30;86.30
8862;DHT22;4799;50.996;4.754;2024-03-23T14:21:21;12.10;88.10
8862;DHT22;4799;50.996;4.754;2024-03-23T14:23:47;11.80;88.10
8862;DHT22;4799;50.996;4.754;2024-03-23T14:26:13;11.50;90.10
8862;DHT22;4799;50.996;4.754;2024-03-23T14:28:38;11.10;90.90
8862;DHT22;4799;50.996;4.754;2024-03-23T14:31:04;10.90;91.90
8862;DHT22;4799;50.996;4.754;2024-03-23T14:33:38;10.70;92.40
8862;DHT22;4799;50.996;4.754;2024-03-23T14:36:07;10.60;93.80
8862;DHT22;4799;50.996;4.754;2024-03-23T14:38:33;10.50;94.30
8862;DHT22;4799;50.996;4.754;2024-03-23T14:41:00;10.50;95.20
8862;DHT22;4799;50.996;4.754;2024-03-23T14:43:26;10.50;95.40
8862;DHT22;4799;50.996;4.754;2024-03-23T14:46:13;10.50;95.50
8862;DHT22;4799;50.996;4.754;2024-03-23T14:48:39;10.60;95.30
8862;DHT22;4799;50.996;4.754;2024-03-23T14:51:05;10.50;94.30
8862;DHT22;4799;50.996;4.754;2024-03-23T14:53:40;10.60;94.10
8862;DHT22;4799;50.996;4.754;2024-03-23T14:56:07;10.60;94.90
8862;DHT22;4799;50.996;4.754;2024-03-23T14:58:33;10.70;94.80
8862;DHT22;4799;50.996;4.754;2024-03-23T15:01:06;10.90;94.30
8862;DHT22;4799;50.996;4.754;2024-03-23T15:03:39;10.90;92.20
8862;DHT22;4799;50.996;4.754;2024-03-23T15:06:05;10.90;92.50
8862;DHT22;4799;50.996;4.754;2024-03-23T15:08:31;10.90;91.90
8862;DHT22;4799;50.996;4.754;2024-03-23T15:11:00;11.00;91.60
8862;DHT22;4799;50.996;4.754;2024-03-23T15:13:32;11.00;91.70
8862;DHT22;4799;50.996;4.754;2024-03-23T15:15:57;11.10;92.80
8862;DHT22;4799;50.996;4.754;2024-03-23T15:18:23;11.30;92.80
8862;DHT22;4799;50.996;4.754;2024-03-23T15:23:19;11.60;91.70
8862;DHT22;4799;50.996;4.754;2024-03-23T15:25:44;11.60;91.70
8862;DHT22;4799;50.996;4.754;2024-03-23T15:28:10;11.50;91.70
8862;DHT22;4799;50.996;4.754;2024-03-23T15:30:36;11.40;90.20
8862;DHT22;4799;50.996;4.754;2024-03-23T15:33:01;11.20;90.30
8862;DHT22;4799;50.996;4.754;2024-03-23T15:35:28;11.10;91.20
8862;DHT22;4799;50.996;4.754;2024-03-23T15:37:53;11.00;92.10
8862;DHT22;4799;50.996;4.754;2024-03-23T15:40:19;10.90;94.50
8862;DHT22;4799;50.996;4.754;2024-03-23T15:42:45;10.70;95.80
8862;DHT22;4799;50.996;4.754;2024-03-23T15:45:11;10.50;97.20
8862;DHT22;4799;50.996;4.754;2024-03-23T15:47:37;10.40;99.60
8862;DHT22;4799;50.996;4.754;2024-03-23T15:50:02;10.40;99.90
8862;DHT22;4799;50.996;4.754;2024-03-23T15:52:34;10.30;99.90
8862;DHT22;4799;50.996;4.754;2024-03-23T15:55:01;10.10;99.90
8862;DHT22;4799;50.996;4.754;2024-03-23T15:57:27;9.80;99.90
8862;DHT22;4799;50.996;4.754;2024-03-23T15:59:53;9.60;99.90
8862;DHT22;4799;50.996;4.754;2024-03-23T16:02:19;9.40;99.90
8862;DHT22;4799;50.996;4.754;2024-03-23T16:04:44;9.20;99.90
8862;DHT22;4799;50.996;4.754;2024-03-23T16:07:11;9.20;99.90
8862;DHT22;4799;50.996;4.754;2024-03-23T16:09:37;9.10;99.90
8862;DHT22;4799;50.996;4.754;2024-03-23T16:12:03;9.10;99.90
8862;DHT22;4799;50.996;4.754;2024-03-23T16:14:29;9.10;99.90
8862;DHT22;4799;50.996;4.754;2024-03-23T16:16:55;9.00;99.90
8862;DHT22;4799;50.996;4.754;2024-03-23T16:19:20;9.00;99.90
8862;DHT22;4799;50.996;4.754;2024-03-23T16:21:48;9.00;99.90
8862;DHT22;4799;50.996;4.754;2024-03-23T16:24:13;8.90;99.90
8862;DHT22;4799;50.996;4.754;2024-03-23T16:26:39;8.90;99.90
8862;DHT22;4799;50.996;4.754;2024-03-23T16:29:05;8.90;99.90
8862;DHT22;4799;50.996;4.754;2024-03-23T16:31:31;8.80;99.90
8862;DHT22;4799;50.996;4.754;2024-03-23T16:33:57;8.80;99.90
8862;DHT22;4799;50.996;4.754;2024-03-23T16:36:22;8.80;99.90
8862;DHT22;4799;50.996;4.754;2024-03-23T16:38:48;8.70;99.90
8862;DHT22;4799;50.996;4.754;2024-03-23T16:41:14;8.70;99.90
8862;DHT22;4799;50.996;4.754;2024-03-23T16:43:43;8.60;99.90
8862;DHT22;4799;50.996;4.754;2024-03-23T16:46:10;8.50;99.90
8862;DHT22;4799;50.996;4.754;2024-03-23T16:48:41;8.50;99.90
8862;DHT22;4799;50.996;4.754;2024-03-23T16:51:07;8.50;99.90
8862;DHT22;4799;50.996;4.754;2024-03-23T16:53:34;8.50;99.90
8862;DHT22;4799;50.996;4.754;2024-03-23T16:56:04;8.40;99.90
8862;DHT22;4799;50.996;4.754;2024-03-23T16:58:33;8.40;99.90
8862;DHT22;4799;50.996;4.754;2024-03-23T17:01:07;8.40;99.90
8862;DHT22;4799;50.996;4.754;2024-03-23T17:03:38;8.30;99.90
8862;DHT22;4799;50.996;4.754;2024-03-23T17:06:08;8.30;99.90
8862;DHT22;4799;50.996;4.754;2024-03-23T17:08:34;8.30;99.90
8862;DHT22;4799;50.996;4.754;2024-03-23T17:11:01;8.30;99.90
8862;DHT22;4799;50.996;4.754;2024-03-23T17:13:30;8.30;99.90
8862;DHT22;4799;50.996;4.754;2024-03-23T17:15:57;8.30;99.90
8862;DHT22;4799;50.996;4.754;2024-03-23T17:18:23;8.30;99.90
8862;DHT22;4799;50.996;4.754;2024-03-23T17:20:48;8.30;99.90